Pagrindinis puslapis
METAR-TAF:

METAR-TAF

Oro uostai :

Al-`Ula, Saudo Arabija

platuma: 26-29-00N, ilguma: 038-07-01E, Aukštis: 624 m

Dabartinis oras

Ataskaita buvo paskelbta 22 minutes, ne 14:00 UTC
Vėjas 14 kt iš Vakarų
Temperatūra 33°C
Drėgmė 8%
Slėgis 1007 hPa
Matomumas 10 km arba daugiau
nėra debesų žemiau 1500 m ir nėra kamuolinių lietaus debesų

METAR: OEAO 201400Z 26014KT CAVOK 33/M06 Q1007 NOSIG

Laikas: 17:22 (14:22 UTC)

Prognozė

Ataskaita buvo paskelbta 3 valandos ir 22 minutes, ne 11:00 UTC
Prognozė galioja nuo 20 metu 12 UTC su 21 metu 18 UTC
Vėjas 15 kt iš Vakarų
Matomumas: 7000 m
Tapsmas
nuo 20 metu 18 UTC su 20 metu 21 UTC
Vėjas 3 kt nuo kintamojo kryptimis
Matomumas 10 km arba daugiau
nėra debesų žemiau 1500 m ir nėra kamuolinių lietaus debesų

TAF: OEAO 201100Z 2012/2118 27015KT 7000 NSC BECMG 2018/2021 VRB03KT CAVOK

Orai ataskaitas ir orų prognozės (METAR, TAF).

turimą stotys yra geltonos ir raudonos taškus žemėlapyje.

Perkelti pele per norėdami pamatyti stoties vardą.

Tada spustelėkite, norėdami matyti oro stebėjimo ir prognozės.

Norėdami pakeisti žemėlapį: spustelėkite ant žalios mygtukų su juodo kryžiaus žemyn,; žalią mygtuką su brūkšneliu, jei norite nutolinti; arba žalių rodyklių gretimoms žemėlapius.


METAR-TAF: